Micmac Environmental Services

46° 41' 47"N, 68° 01' 59"W, Elevation 540 ft.
Eastern Time

Hourly observations for the last 48 hours

Date Time Temperature (F) Humi-
dity

(%)
Wind
(mph)
Pressure Rain (in) Sun
(W/m2)
UV ET
(in)
Air Dew 6 Hour 1 Hr 3 Hr 6 Hr Day
Alt
(in)
Sea
Level

(mb)
Max Min
21 06:00 61.7 59.4 92 S 4 G 8 29.74 1007.3 0.01 475 3.0 0.000
21 05:00 62.4 60.0 92 Calm 29.75 1007.4 0.01 475 3.0 0.000
21 04:00 62.7 60.0 91 Calm 29.73 1006.9 0.01 475 3.0 0.000
21 03:00 63.0 60.0 90 Calm 29.74 1007.1 0.01 475 3.0 0.000
21 02:00 63.2 60.5 75.9 63.1 91 Calm 29.75 1007.3 0.01 0.01 0.01 0.01 475 3.0 0.000
21 01:00 63.4 61.3 93 Calm 29.75 1007.6 0.00 475 3.0 0.000
21 00:00 64.5 61.8 91 Calm 29.77 1008.0 0.00 475 3.0 0.000
20 23:00 66.3 62.3 87 N 0 G 6 29.77 1008.2 0.00 475 3.0 0.000
20 22:00 69.8 66.1 88 Calm 29.76 1007.9 0.00 475 3.0 0.000
20 21:00 71.7 66.6 84 Calm 29.77 1008.2 0.00 475 3.0 0.000
20 20:00 75.9 66.2 83.3 75.9 72 Calm 29.76 1007.9 0.00 475 3.0 0.000
20 19:00 78.9 65.7 64 Calm 29.77 1008.0 0.00 475 3.0 0.000
20 18:00 79.3 64.7 61 Calm 29.78 1008.6 0.00 475 3.0 0.000
20 17:00 80.2 63.6 57 W 5 G 9 29.80 1009.1 0.00 475 3.0 0.000
20 16:00 81.3 62.0 52 W 4 G 7 29.79 1009.0 0.00 475 3.0 0.000
20 15:00 82.7 59.2 45 W 6 G 13 29.81 1009.5 0.00 475 3.0 0.000
20 14:00 81.9 63.1 82.0 68.0 53 NW 4 G 11 29.83 1010.2 0.00 475 3.0 0.000
20 13:00 80.4 63.8 57 NW 4 G 12 29.85 1010.9 0.00 475 3.0 0.000
20 12:00 78.9 64.3 61 WNW 5 G 11 29.87 1011.5 0.00 475 3.0 0.000
20 11:00 75.7 66.4 73 WNW 3 G 10 29.88 1012.0 0.00 475 3.0 0.000
20 10:00 72.8 65.9 79 W 1 G 6 29.88 1011.9 0.00 475 3.0 0.000
20 09:00 71.0 65.6 83 Calm 29.89 1012.1 0.00 475 3.0 0.000
20 08:00 68.0 64.3 68.1 63.0 88 W 1 G 7 29.91 1012.9 0.00 475 3.0 0.000
20 07:00 65.1 62.7 92 SW 2 G 7 29.90 1012.4 0.00 475 3.0 0.000
20 06:00 63.9 61.8 93 W 0 G 6 29.89 1012.1 0.00 475 3.0 0.000
20 05:00 63.1 61.6 95 Calm 29.88 1011.9 0.00 475 3.0 0.000
20 04:00 64.0 62.2 94 Calm 29.87 1011.5 0.00 475 3.0 0.000
20 03:00 65.2 63.4 94 Calm 29.86 1011.2 0.00 475 3.0 0.000
20 02:00 67.3 64.6 76.4 67.3 91 Calm 29.85 1010.9 0.01 0.00 475 3.0 0.000
20 01:00 68.5 65.5 90 W 6 G 11 29.87 1011.5 0.00 475 3.0 0.000
20 00:00 68.4 65.7 91 W 6 G 9 29.87 1011.5 0.00 475 3.0 0.000
19 23:00 69.2 66.1 90 Calm 29.88 1012.0 0.01 0.01 0.01 475 3.0 0.138
19 22:00 71.9 65.4 80 W 7 G 14 29.88 1012.0 0.00 475 3.0 0.138
19 21:00 75.3 65.3 71 WNW 7 G 10 29.88 1012.0 0.00 475 3.0 0.138
19 20:00 76.4 65.1 86.3 76.4 68 WNW 7 G 13 29.86 1011.2 0.00 475 3.0 0.138
19 19:00 80.5 66.3 62 WSW 5 G 8 29.83 1010.3 0.00 475 3.0 0.138
19 18:00 82.5 66.3 58 WSW 4 G 6 29.83 1010.4 0.00 475 3.0 0.138
19 17:00 84.0 65.1 53 WSW 8 G 14 29.83 1010.3 0.00 475 3.0 0.138
19 16:00 86.1 65.9 51 SSW 10 G 16 29.84 1010.5 0.00 475 3.0 0.138
19 15:00 85.5 65.3 51 WSW 11 G 17 29.84 1010.6 0.00 475 4.2 0.115
19 14:00 84.2 64.7 85.0 70.1 52 SW 12 G 21 29.86 1011.2 0.00 459 4.0 0.093
19 13:00 84.3 66.4 55 SW 13 G 23 29.88 1012.0 0.00 715 7.1 0.068
19 12:00 81.6 69.2 66 WSW 7 G 19 29.91 1012.8 0.00 329 7.6 0.040
19 11:00 79.8 69.6 71 SW 6 G 13 29.93 1013.5 0.00 828 6.5 0.018
19 10:00 76.8 68.3 75 SSW 7 G 12 29.93 1013.7 0.00 77 0.0 0.000
19 09:00 73.3 67.5 82 S 6 G 11 29.95 1014.4 0.00 77 0.0 0.000
19 08:00 70.1 66.1 70.1 63.4 87 SSW 7 G 13 29.97 1014.8 0.00 77 0.0 0.000
19 07:00 66.6 64.5 93 SSW 8 G 12 29.96 1014.7 0.00 77 0.0 0.000

Data generated by WxSolution Version 1.8.4.5, Build 2009.10.25.